Time;durP1;ratioP1;P1;durP2;ratioP2;P2;SDS_P1;SDS_P2;PMS_P1;PMS_P2;Temp;Humidity;BMP_temperature;BMP_pressure;BME280_temperature;BME280_humidity;BME280_pressure;Samples;Min_cycle;Max_cycle;Signal;HPM_P1;HPM_P2
2021/04/16 12:41:21;;;;;;;5.70;1.27;;;;;;;22.99;28.57;97810.50;5032604;27;20385;-69
2021/04/16 12:43:47;;;;;;;8.15;1.30;;;;;;;22.95;28.85;97811.94;5049523;28;20119;-64
2021/04/16 12:46:17;;;;;;;3.67;1.20;;;;;;;22.90;29.40;97817.91;5057848;28;20037;-67
2021/04/16 12:48:43;;;;;;;6.78;1.30;;;;;;;22.88;28.83;97812.00;5079315;28;20088;-66
2021/04/16 12:51:09;;;;;;;2.92;1.13;;;;;;;22.90;29.41;97814.44;5050711;28;20057;-66
2021/04/16 12:53:34;;;;;;;5.80;1.30;;;;;;;22.96;29.39;97805.56;5047296;28;20068;-58
2021/04/16 12:56:00;;;;;;;3.60;1.20;;;;;;;-143.33;100.00;61075.41;5035311;28;20049;-58
2021/04/16 12:58:32;;;;;;;4.10;1.02;;;;;;;-143.33;100.00;61075.41;5036985;28;20121;-57
2021/04/16 13:04:32;;;;;;;7.53;1.30;;;;;;;;;;5044639;27;775188;-68
2021/04/16 13:06:58;;;;;;;10.13;1.20;;;;;;;;;;5076739;28;20063;-60
2021/04/16 13:09:23;;;;;;;8.10;1.50;;;;;;;;;;5074954;27;20043;-71
2021/04/16 13:12:59;;;;;;;5.60;1.92;;;;;;;;;;5034024;27;20467;-64
2021/04/16 13:18:15;;;;;;;8.27;2.33;;;;;;;;;;4960686;28;20417;-63
2021/04/16 13:20:42;;;;;;;7.25;2.22;;;;;;;;;;4967336;28;20493;-65
2021/04/16 13:25:27;;;;;;;14.07;7.32;;;;;;;21.22;24.82;97458.44;5019496;27;20404;-63
2021/04/16 13:27:53;;;;;;;13.32;6.63;;;;;;;20.34;23.73;97454.78;5012222;28;20033;-63
2021/04/16 13:30:21;;;;;;;12.35;5.85;;;;;;;19.81;23.53;97452.88;5020908;28;20502;-63
2021/04/16 13:32:47;;;;;;;16.05;8.23;;;;;;;19.61;23.54;97449.47;5048878;28;21294;-63
2021/04/16 13:35:18;;;;;;;228.80;181.68;;;;;;;19.48;24.18;97444.53;5000786;28;20064;-63
2021/04/16 13:37:44;;;;;;;82.25;58.17;;;;;;;19.28;23.28;97449.06;5015180;28;20041;-64
2021/04/16 13:40:09;;;;;;;55.92;40.70;;;;;;;19.16;23.29;97440.50;5021827;28;20041;-63
2021/04/16 13:42:35;;;;;;;27.90;19.92;;;;;;;19.10;23.22;97435.81;5033240;28;20068;-64
2021/04/16 13:45:00;;;;;;;20.65;12.57;;;;;;;19.09;23.94;97439.41;5035933;28;20056;-64
2021/04/16 13:47:27;;;;;;;16.85;10.77;;;;;;;19.01;23.07;97416.38;5035271;28;20443;-64
2021/04/16 13:49:55;;;;;;;13.70;8.77;;;;;;;18.97;23.00;97418.47;5028305;28;20050;-64
2021/04/16 13:52:20;;;;;;;7.88;3.60;;;;;;;18.79;23.24;97430.69;5034503;28;20082;-64
2021/04/16 13:54:48;;;;;;;10.60;4.60;;;;;;;19.02;27.04;97428.59;5028582;28;20052;-60
2021/04/16 14:23:26;;;;;;;8.63;2.67;;;;;;;13.79;25.73;97413.56;5088491;27;811586;-78
2021/04/16 14:25:52;;;;;;;6.85;2.60;;;;;;;13.13;25.51;97416.44;5046775;28;20033;-75
2021/04/16 14:28:18;;;;;;;6.47;2.30;;;;;;;12.61;26.77;97423.41;5038386;28;20565;-77
2021/04/16 14:30:43;;;;;;;;;;;;;;;12.14;27.60;97425.63;5035102;28;20068;-78
2021/04/16 14:33:14;;;;;;;5.25;2.15;;;;;;;11.96;27.55;97418.97;5063094;28;19920;-77
2021/04/16 14:35:39;;;;;;;6.35;2.42;;;;;;;11.76;27.60;97428.06;5040916;28;20474;-76
2021/04/16 14:38:05;;;;;;;6.38;2.67;;;;;;;11.63;28.30;97420.19;5048125;28;20117;-77
2021/04/16 14:40:31;;;;;;;6.40;2.50;;;;;;;11.80;28.10;97422.53;5027804;28;20049;-76
2021/04/16 14:42:56;;;;;;;6.80;2.35;;;;;;;11.94;28.63;97420.88;5044315;28;20045;-76
2021/04/16 14:45:24;;;;;;;6.43;2.10;;;;;;;11.88;27.75;97422.06;5037453;28;20080;-76
2021/04/16 14:47:49;;;;;;;6.03;2.45;;;;;;;11.73;27.75;97429.09;5040188;28;20029;-76
2021/04/16 14:50:15;;;;;;;6.30;2.10;;;;;;;11.69;28.68;97411.97;5052851;28;20037;-75
2021/04/16 14:52:40;;;;;;;5.72;1.95;;;;;;;11.64;28.48;97427.09;5041076;28;20057;-75
2021/04/16 14:55:12;;;;;;;5.13;2.00;;;;;;;11.43;28.66;97422.25;5036840;28;20033;-80
2021/04/16 14:57:39;;;;;;;4.85;1.80;;;;;;;11.32;28.96;97427.31;5019799;28;20082;-74
2021/04/16 15:00:09;;;;;;;4.88;1.90;;;;;;;11.27;28.99;97431.97;5032809;28;20029;-75
2021/04/16 15:02:35;;;;;;;5.47;1.92;;;;;;;11.15;29.38;97420.50;5035569;28;20119;-74
2021/04/16 15:05:00;;;;;;;5.03;1.80;;;;;;;11.11;28.94;97432.06;5033226;28;20107;-74
2021/04/16 15:07:30;;;;;;;11.00;2.60;;;;;;;11.18;29.92;97420.31;5028968;28;67716;-75
2021/04/16 15:21:48;;;;;;;5.22;2.13;;;;;;;11.21;29.24;97432.34;5066347;27;58303;-76
2021/04/16 15:25:59;;;;;;;6.32;2.33;;;;;;;11.04;29.48;97436.81;5076149;27;20903;-76
2021/04/16 15:28:27;;;;;;;5.60;2.10;;;;;;;11.02;29.12;97437.84;5053196;28;20128;-76
2021/04/16 15:30:57;;;;;;;6.22;2.20;;;;;;;11.07;29.06;97425.38;5057108;28;20066;-76
